• Join FlightAware (Why Join?)
  • Login
  • US Flag 
07:55PM EDT


 

Airport Tracker/Info


-or-


 

Live Flight TrackerFlight Track Log ✈ SWA620 ✈ 14-Jul-2013 ✈ KMCO - KMHT

Flight Track Log - Related Links

Times and Time Zones

All times are in EDT time to prevent confusion due to time zone crossing. See the SWA620 flight status page for this flight to view local times or setup timezone preferences in your user account.

Time Position Orientation Groundspeed Altitude Reporting Facility
EDT Latitude Longitude Course Direction KTS MPH feet Rate Location/Type
08:34PM 28.4000 -81.3000 130° Southeast 149 171 900  Level Orlando TRACON
08:36PM 28.3500 -81.2333 130° Southeast 220 253 4,100 2,160 Climbing Orlando TRACON
08:37PM 28.3667 -81.1667 74° East 271 312 6,400 2,460 Climbing Orlando TRACON
08:39PM 28.5350 -81.1889 353° North 310 357 12,100 2,640 Climbing Jacksonville Center
08:40PM 28.6336 -81.2228 343° North 333 383 15,100 2,760 Climbing Jacksonville Center
08:41PM 28.7386 -81.2589 343° North 366 421 17,700 2,520 Climbing Jacksonville Center
08:42PM 28.8456 -81.2997 342° North 387 445 20,200 2,460 Climbing Jacksonville Center
08:43PM 28.9525 -81.3408 341° North 400 460 22,600 2,220 Climbing Jacksonville Center
08:44PM 29.0697 -81.3792 344° North 415 478 24,700 1,920 Climbing Jacksonville Center
08:45PM 29.1869 -81.3989 352° North 421 484 26,500 1,740 Climbing Jacksonville Center
08:46PM 29.3100 -81.4089 356° North 432 497 28,200 1,620 Climbing Jacksonville Center
08:47PM 29.4353 -81.3950 North 444 511 29,800 1,740 Climbing Jacksonville Center
08:48PM 29.5581 -81.3814 North 439 505 31,700 1,800 Climbing Jacksonville Center
08:49PM 29.6811 -81.3675 North 439 505 33,500 1,500 Climbing Jacksonville Center
08:50PM 29.8042 -81.3536 North 444 511 34,800 1,260 Climbing Jacksonville Center
08:51PM 29.9314 -81.3347 North 444 511 36,100 1,200 Climbing Jacksonville Center
08:52PM 30.0564 -81.3208 North 444 511 37,300 1,260 Climbing Jacksonville Center
08:53PM 30.1919 -81.3042 North 444 511 38,700 840 Climbing Jacksonville Center
08:54PM 30.3150 -81.2925 North 444 511 39,000 120 Climbing Jacksonville Center
08:55PM 30.4358 -81.2783 North 444 511 39,000  Level Jacksonville Center
08:56PM 30.5589 -81.2642 North 444 511 39,000  Level Jacksonville Center
08:57PM 30.6839 -81.2525 North 444 511 39,000  Level Jacksonville Center
08:58PM 30.7986 -81.2383 North 439 505 39,000  Level Jacksonville Center
08:59PM 30.9172 -81.2047 14° North 439 505 39,000  Level Jacksonville Center
09:00PM 31.0292 -81.1542 21° North 426 490 39,000  Level Jacksonville Center
09:01PM 31.1372 -81.1014 23° Northeast 416 479 39,000  Level Jacksonville Center
09:02PM 31.2469 -81.0531 21° North 411 473 39,000  Level Jacksonville Center
09:03PM 31.3547 -81.0000 23° Northeast 417 480 39,000  Level Jacksonville Center
09:04PM 31.4628 -80.9489 22° Northeast 412 474 39,000  Level Jacksonville Center
09:05PM 31.5581 -80.9031 22° Northeast 405 466 39,000  Level Jacksonville Center
09:06PM 31.6742 -80.8517 21° North 405 466 39,000  Level Jacksonville Center
09:07PM 31.7778 -80.8006 23° Northeast 412 474 39,000  Level Jacksonville Center
09:08PM 31.8875 -80.7542 20° North 403 464 39,000  Level Jacksonville Center
09:09PM 31.9911 -80.7050 22° Northeast 408 470 39,000  Level Jacksonville Center
09:10PM 32.0864 -80.6586 22° Northeast 408 470 39,000  Level Jacksonville Center
09:11PM 32.2022 -80.6019 22° Northeast 408 470 39,000  Level Jacksonville Center
09:12PM 32.3078 -80.5525 22° Northeast 408 470 39,000  Level Jacksonville Center
09:13PM 32.4133 -80.5031 22° Northeast 402 463 39,000  Level Jacksonville Center
09:14PM 32.5208 -80.4511 22° Northeast 410 472 39,000  Level Jacksonville Center
09:15PM 32.6264 -80.4014 22° Northeast 402 463 39,000  Level Jacksonville Center
09:16PM 32.7319 -80.3514 22° Northeast 407 468 39,000  Level Jacksonville Center
09:17PM 32.8372 -80.2992 23° Northeast 407 468 39,000  Level Jacksonville Center
09:18PM 32.9406 -80.2492 22° Northeast 407 468 39,000  Level Jacksonville Center
09:19PM 33.0458 -80.1989 22° Northeast 427 491 39,000  Level Jacksonville Center
09:20PM 33.1472 -80.1511 22° Northeast 421 484 39,000  Level Jacksonville Center
09:21PM 33.2544 -80.0981 22° Northeast 416 479 39,000  Level Jacksonville Center
09:22PM 33.3578 -80.0503 21° North 402 463 39,000  Level Jacksonville Center
09:23PM 33.4611 -79.9997 22° Northeast 402 463 39,000  Level Jacksonville Center
09:24PM 33.5642 -79.9489 22° Northeast 402 463 39,000  Level Jacksonville Center
09:25PM 33.6672 -79.8981 22° Northeast 402 463 39,000  Level Jacksonville Center
09:26PM 33.7725 -79.8469 22° Northeast 396 456 39,000  Level Jacksonville Center
09:27PM 33.8775 -79.7933 23° Northeast 396 456 39,000  Level Jacksonville Center
09:28PM 33.9828 -79.7419 22° Northeast 396 456 39,000  Level Jacksonville Center
09:29PM 34.0858 -79.6906 22° Northeast 396 456 39,000  Level Jacksonville Center
09:30PM 34.2714 -79.6028 21° North 388 447 39,000  Level Washington Center
09:31PM 34.3733 -79.5472 24° Northeast 399 459 39,000  Level Washington Center
09:32PM 34.4772 -79.4969 22° Northeast 399 459 39,000  Level Washington Center
09:33PM 34.5811 -79.4464 22° Northeast 399 459 39,000  Level Washington Center
09:34PM 34.6853 -79.3906 24° Northeast 399 459 39,000  Level Washington Center
09:35PM 34.7892 -79.3400 22° Northeast 399 459 39,000  Level Washington Center
09:36PM 34.8931 -79.2864 23° Northeast 399 459 39,000  Level Washington Center
09:37PM 34.9969 -79.2353 22° Northeast 399 459 39,000  Level Washington Center
09:38PM 35.1006 -79.1842 22° Northeast 399 459 39,000  Level Washington Center
09:39PM 35.2067 -79.1306 22° Northeast 399 459 39,000  Level Washington Center
09:40PM 35.3144 -79.0767 22° Northeast 399 459 39,000  Level Washington Center
09:41PM 35.4183 -79.0225 23° Northeast 399 459 39,000  Level Washington Center
09:42PM 35.5261 -78.9711 21° North 399 459 39,000  Level Washington Center
09:43PM 35.6322 -78.9142 24° Northeast 399 459 39,000  Level Washington Center
09:44PM 35.7400 -78.8572 23° Northeast 399 459 39,000  Level Washington Center
09:45PM 35.8458 -78.8028 23° Northeast 399 459 39,000  Level Washington Center
09:46PM 35.9419 -78.7272 32° Northeast 404 465 39,000  Level Washington Center
09:47PM 36.0250 -78.6558 35° Northeast 404 465 39,000  Level Washington Center
09:48PM 36.1169 -78.5747 35° Northeast 404 465 39,000  Level Washington Center
09:49PM 36.2108 -78.4906 36° Northeast 404 465 39,000  Level Washington Center
09:50PM 36.3044 -78.4092 35° Northeast 404 465 39,000  Level Washington Center
09:51PM 36.3961 -78.3247 37° Northeast 409 471 39,000  Level Washington Center
09:52PM 36.4897 -78.2428 35° Northeast 409 471 39,000  Level Washington Center
09:53PM 36.5814 -78.1578 37° Northeast 414 476 39,000  Level Washington Center
09:54PM 36.6814 -78.0653 37° Northeast 414 476 39,000  Level Washington Center
09:55PM 36.7750 -77.9800 36° Northeast 414 476 39,000  Level Washington Center
09:56PM 36.8683 -77.8894 38° Northeast 414 476 39,000  Level Washington Center
09:57PM 36.9619 -77.8039 36° Northeast 414 476 39,000  Level Washington Center
09:58PM 37.0531 -77.7181 37° Northeast 414 476 39,000  Level Washington Center
09:59PM 37.1442 -77.6347 36° Northeast 414 476 39,000  Level Washington Center
10:00PM 37.2375 -77.5433 38° Northeast 414 476 39,000  Level Washington Center
10:01PM 37.3306 -77.4594 36° Northeast 414 476 39,000  Level Washington Center
10:02PM 37.4239 -77.3753 36° Northeast 414 476 39,000  Level Washington Center
10:03PM 37.5169 -77.2858 37° Northeast 414 476 39,000  Level Washington Center
10:04PM 37.6078 -77.1961 38° Northeast 414 476 39,000  Level Washington Center
10:05PM 37.7006 -77.1089 37° Northeast 414 476 39,000  Level Washington Center
10:06PM 37.7936 -77.0186 37° Northeast 414 476 39,000  Level Washington Center
10:07PM 37.8864 -76.9283 38° Northeast 414 476 39,000  Level Washington Center
10:08PM 37.9792 -76.8378 38° Northeast 414 476 39,000  Level Washington Center
10:09PM 38.0717 -76.7469 38° Northeast 414 476 39,000  Level Washington Center
10:10PM 38.1642 -76.6586 37° Northeast 414 476 39,000  Level Washington Center
10:11PM 38.2589 -76.5647 38° Northeast 414 476 39,000  Level Washington Center
10:12PM 38.3408 -76.4839 38° Northeast 414 476 39,000  Level Washington Center
10:13PM 38.4353 -76.3922 37° Northeast 414 476 39,000  Level Washington Center
10:14PM 38.5278 -76.3003 38° Northeast 414 476 39,000  Level Washington Center
10:15PM 38.6200 -76.2081 38° Northeast 414 476 39,000  Level Washington Center
10:16PM 38.7119 -76.1211 36° Northeast 414 476 39,000  Level Washington Center
10:17PM 38.8042 -76.0311 37° Northeast 419 482 39,000  Level Washington Center
10:18PM 38.8961 -75.9411 37° Northeast 414 476 39,000  Level Washington Center
10:19PM 38.9861 -75.8506 38° Northeast 414 476 39,000  Level Washington Center
10:20PM 39.0778 -75.7600 37° Northeast 414 476 39,000  Level Washington Center
10:21PM 39.1697 -75.6692 37° Northeast 414 476 39,000  Level Washington Center
10:22PM 39.2592 -75.5781 38° Northeast 414 476 39,000  Level Washington Center
10:23PM 39.3508 -75.4842 38° Northeast 414 476 39,000  Level Washington Center
10:24PM 39.4425 -75.3928 38° Northeast 414 476 39,000  Level Washington Center
10:25PM 39.5339 -75.2983 39° Northeast 414 476 39,000  Level Washington Center
10:26PM 39.6275 -75.2061 37° Northeast 414 476 39,000  Level Washington Center
10:27PM 39.7269 -75.0925 41° Northeast 420 483 39,000  Level Washington Center
10:30PM 39.9269 -74.8908 38° Northeast 418 481 39,000  Level New York Center
10:31PM 40.0058 -74.7761 48° Northeast 413 475 39,000  Level New York Center
10:32PM 40.0869 -74.6642 47° Northeast 418 481 39,000  Level New York Center
10:33PM 40.1633 -74.5544 48° Northeast 418 481 39,000  Level New York Center
10:34PM 40.2778 -74.4953 22° Northeast 417 480 39,000  Level New York Center
10:35PM 40.3933 -74.4661 11° North 411 473 39,000  Level New York Center
10:36PM 40.5089 -74.4342 12° North 416 479 39,000  Level New York Center
10:37PM 40.7186 -74.3761 12° North 421 484 39,000 -420 Level Boston Center
10:38PM 40.8336 -74.3519 North 426 490 38,000 -1,020 Descending Boston Center
10:39PM 40.9550 -74.3200 11° North 431 496 37,000 -960 Descending Boston Center
10:40PM 41.0722 -74.2847 13° North 431 496 36,100 -960 Descending Boston Center
10:41PM 41.1917 -74.2522 12° North 431 496 35,100 -600 Descending Boston Center
10:42PM 41.3069 -74.2169 13° North 425 489 35,000 -60 Descending Boston Center
10:43PM 41.4242 -74.1814 13° North 425 489 35,000 -600 Level Boston Center
10:44PM 41.5475 -74.1514 10° North 425 489 33,900 -1,020 Descending Boston Center
10:45PM 41.6647 -74.1186 12° North 437 503 33,000 -960 Descending Boston Center
10:46PM 41.7861 -74.0828 12° North 437 503 32,000 -960 Descending Boston Center
10:47PM 41.9033 -74.0525 11° North 431 496 31,100 -1,080 Descending Boston Center
10:48PM 42.0186 -73.9994 19° North 431 496 29,900 -1,620 Descending Boston Center
10:49PM 42.0872 -73.8697 54° Northeast 401 461 27,900 -2,100 Descending Boston Center
10:50PM 42.1492 -73.7339 58° Northeast 401 461 25,800 -1,800 Descending Boston Center
10:51PM 42.2153 -73.5867 59° Northeast 436 502 24,300 -1,380 Descending Boston Center
10:52PM 42.2642 -73.4836 57° Northeast 416 479 23,100 -1,500 Descending Boston Center
10:53PM 42.3303 -73.3386 58° Northeast 411 473 21,300 -1,500 Descending Boston Center
10:54PM 42.3917 -73.1964 60° Northeast 397 457 20,100 -1,140 Descending Boston Center
10:55PM 42.4444 -73.0731 60° Northeast 392 451 19,100 -600 Descending Boston Center
10:56PM 42.5014 -72.9556 57° Northeast 383 441 19,000 -60 Descending Boston Center
10:57PM 42.5519 -72.8431 59° Northeast 383 441 19,000  Level Boston Center
10:58PM 42.5961 -72.6967 68° East 378 435 19,000 -300 Level Boston Center
10:59PM 42.6336 -72.5756 67° East 378 435 18,400 -1,440 Descending Boston Center
11:00PM 42.6733 -72.4400 68° East 378 435 16,200 -2,280 Descending Boston Center
11:01PM 42.7108 -72.3100 69° East 373 429 13,900 -2,400 Descending Boston Center
11:02PM 42.7503 -72.1714 69° East 373 429 11,500 -1,800 Descending Boston Center
11:03PM 42.7811 -72.0611 69° East 359 413 10,400 -1,140 Descending Boston Center
11:04PM 42.8142 -71.9447 69° East 313 360 9,300 -1,320 Descending Boston Center
11:05PM 42.8053 -71.8431 97° East 291 335 7,800 -1,500 Descending Boston Center
11:06PM 42.7942 -71.7214 97° East 291 335 6,300 -1,440 Descending Boston Center
11:07PM 42.7872 -71.6253 96° East 291 335 5,000 -1,380 Descending Boston Center
11:08PM 42.7781 -71.5122 96° East 285 328 3,600 -1,020 Descending Boston Center
11:09PM 42.7878 -71.4414 79° East 267 307 3,000 -360 Descending Boston Center
11:10PM 42.8267 -71.3586 57° Northeast 199 229 2,900 -780 Descending Boston Center
11:11PM 42.8603 -71.3922 324° Northwest 127 146 1,500 -1,020 Descending Boston Center
11:12PM 42.8939 -71.4114 337° Northwest 122 140 900 -540 Descending Boston Center
11:13PM 42.9253 -71.4278 339° North 135 155 500 9,000 Descending Boston Center
11:14PM 42.9631 -71.4500 337° Northwest 135 155 19,000 9,240 Climbing Boston Center
11:15PM 42.9986 -71.4692 338° Northwest 135 155 19,000  Level Boston Center
11:16PM 43.0364 -71.4914 337° Northwest 135 155 19,000  Level Boston Center
11:18PM 42.9328 -71.4358 160° South  Level Estimated
11:25PM 42.9328 -71.4358 160° South  Level Estimated
11:26PM 42.9328 -71.4358 160° South  Level Estimated
11:27PM 42.9328 -71.4358 160° South  Level Estimated
11:28PM 42.9328 -71.4358 160° South  Level Estimated
11:29PM 42.9328 -71.4358 160° South  Level Estimated